createdAt,value
2022-08-26T00:04:19.727Z,89.32
2022-08-26T00:09:25.289Z,89.70
2022-08-26T00:14:31.193Z,89.87
2022-08-26T00:19:34.910Z,90.00
2022-08-26T00:24:38.031Z,90.57
2022-08-26T00:29:41.055Z,90.80
2022-08-26T00:34:44.026Z,91.10
2022-08-26T00:39:47.576Z,91.52
2022-08-26T00:44:51.009Z,91.67
2022-08-26T00:49:55.322Z,91.82
2022-08-26T00:55:23.909Z,92.26
2022-08-26T01:00:32.111Z,92.19
2022-08-26T01:05:35.148Z,92.36
2022-08-26T01:10:38.212Z,92.97
2022-08-26T01:15:49.284Z,93.04
2022-08-26T01:21:29.545Z,93.29
2022-08-26T01:26:41.562Z,93.31
2022-08-26T01:31:49.700Z,93.57
2022-08-26T01:37:05.459Z,93.96
2022-08-26T01:42:12.442Z,94.18
2022-08-26T01:47:18.111Z,94.03
2022-08-26T01:52:28.676Z,94.30
2022-08-26T01:57:31.896Z,94.49
2022-08-26T02:02:34.751Z,94.74
2022-08-26T02:07:40.514Z,94.87
2022-08-26T02:12:43.315Z,94.86
2022-08-26T02:17:47.951Z,95.24
2022-08-26T02:22:56.207Z,95.39
2022-08-26T02:28:00.666Z,95.48
2022-08-26T02:33:03.981Z,95.52
2022-08-26T02:38:11.174Z,95.89
2022-08-26T02:43:14.894Z,95.92
2022-08-26T02:48:21.245Z,95.92
2022-08-26T02:53:25.410Z,96.33
2022-08-26T02:58:28.497Z,96.66
2022-08-26T03:03:32.057Z,96.82
2022-08-26T03:08:35.526Z,96.89
2022-08-26T03:13:39.514Z,96.83
2022-08-26T03:18:43.388Z,97.26
2022-08-26T03:23:58.643Z,97.58
2022-08-26T03:29:20.207Z,97.48
2022-08-26T03:34:23.401Z,97.85
2022-08-26T03:39:26.519Z,97.61
2022-08-26T03:44:30.058Z,97.89
2022-08-26T03:49:34.919Z,97.81
2022-08-26T03:54:38.765Z,98.31
2022-08-26T03:59:41.552Z,98.23
2022-08-26T04:04:44.385Z,98.02
2022-08-26T04:09:47.735Z,98.80
2022-08-26T04:14:52.644Z,98.87
2022-08-26T04:19:56.725Z,99.07
2022-08-26T04:25:00.140Z,99.06
2022-08-26T04:30:04.868Z,99.23
2022-08-26T04:35:08.383Z,99.45
2022-08-26T04:40:12.720Z,99.45
2022-08-26T04:45:16.321Z,99.78
2022-08-26T04:50:20.815Z,100.00
2022-08-26T04:55:38.115Z,100.00
2022-08-26T05:00:45.871Z,100.00
2022-08-26T05:05:51.251Z,100.00
2022-08-26T05:10:56.041Z,100.00
2022-08-26T05:16:05.624Z,100.00
2022-08-26T05:21:09.336Z,100.00
2022-08-26T05:26:12.268Z,100.00
2022-08-26T05:31:31.790Z,100.00
2022-08-26T05:36:36.067Z,100.00
2022-08-26T05:41:42.979Z,100.00
2022-08-26T05:46:47.699Z,100.00
2022-08-26T05:51:51.495Z,99.75
2022-08-26T05:56:54.431Z,99.25
2022-08-26T06:01:57.388Z,97.50
2022-08-26T06:07:01.061Z,96.79
2022-08-26T06:12:05.110Z,95.67
2022-08-26T06:17:09.530Z,94.54
2022-08-26T06:22:32.564Z,93.29
2022-08-26T06:27:36.803Z,91.69
2022-08-26T06:32:39.620Z,90.40
2022-08-26T06:37:42.905Z,87.69
2022-08-26T06:42:45.956Z,85.12
2022-08-26T06:47:49.510Z,84.67
2022-08-26T06:52:54.925Z,82.42
2022-08-26T06:57:59.925Z,81.20
2022-08-26T07:03:04.765Z,79.55
2022-08-26T07:08:07.975Z,76.75
2022-08-26T07:13:12.421Z,75.67
2022-08-26T07:18:17.213Z,74.02
2022-08-26T07:23:20.438Z,71.36
2022-08-26T07:28:25.968Z,69.74
2022-08-26T07:33:29.891Z,67.87
2022-08-26T07:38:34.550Z,65.22
2022-08-26T07:43:38.029Z,64.83
2022-08-26T07:48:41.398Z,62.78
2022-08-26T07:53:52.428Z,62.07
2022-08-26T07:58:55.849Z,60.99
2022-08-26T08:04:00.509Z,58.80
2022-08-26T08:09:06.154Z,58.82
2022-08-26T08:14:11.832Z,57.61
2022-08-26T08:19:15.593Z,56.48
2022-08-26T08:24:18.543Z,56.49
2022-08-26T08:29:21.438Z,56.30
2022-08-26T08:34:27.223Z,55.75
2022-08-26T08:39:32.944Z,55.21
2022-08-26T08:44:44.344Z,55.76
2022-08-26T08:50:04.878Z,54.90
2022-08-26T08:55:10.360Z,52.38
2022-08-26T09:00:18.894Z,52.84
2022-08-26T09:05:34.905Z,52.63
2022-08-26T09:10:49.923Z,50.69
2022-08-26T09:16:14.305Z,50.39
2022-08-26T09:21:20.209Z,50.63
2022-08-26T09:26:30.887Z,49.09
2022-08-26T09:31:37.423Z,47.80
2022-08-26T09:36:45.346Z,48.34
2022-08-26T09:42:24.637Z,49.14
2022-08-26T09:47:47.963Z,49.20
2022-08-26T09:53:18.715Z,50.01
2022-08-26T09:58:37.849Z,49.00
2022-08-26T10:03:42.119Z,48.88
2022-08-26T10:08:52.525Z,47.46
2022-08-26T10:14:28.125Z,44.90
2022-08-26T10:20:06.488Z,43.86
2022-08-26T10:25:50.138Z,45.53
2022-08-26T10:31:38.467Z,44.13
2022-08-26T10:37:14.093Z,42.99
2022-08-26T10:42:37.601Z,42.12
2022-08-26T10:47:43.776Z,41.77
2022-08-26T10:53:15.448Z,41.05
2022-08-26T10:58:44.726Z,41.67
2022-08-26T11:04:19.466Z,40.66
2022-08-26T11:09:47.084Z,39.75
2022-08-26T11:14:58.741Z,37.77
2022-08-26T11:20:09.224Z,36.68
2022-08-26T11:25:29.281Z,37.98
2022-08-26T11:30:41.004Z,36.21
2022-08-26T11:35:47.630Z,37.07
2022-08-26T11:41:11.531Z,37.65
2022-08-26T11:46:26.852Z,35.76
2022-08-26T11:51:31.586Z,36.46
2022-08-26T11:56:36.817Z,38.30
2022-08-26T12:01:46.068Z,35.59
2022-08-26T12:06:51.697Z,33.89
2022-08-26T12:12:27.069Z,34.47
2022-08-26T12:17:30.056Z,32.96
2022-08-26T12:22:36.118Z,32.44
2022-08-26T12:27:45.521Z,30.89
2022-08-26T12:33:22.238Z,32.70
2022-08-26T12:38:28.988Z,30.03
2022-08-26T12:43:43.491Z,30.78
2022-08-26T12:48:49.698Z,30.66
2022-08-26T12:53:54.053Z,30.19
2022-08-26T12:59:26.682Z,28.60
2022-08-26T13:04:43.532Z,30.38
2022-08-26T13:09:46.366Z,29.96
2022-08-26T13:14:49.930Z,30.94
2022-08-26T13:19:52.893Z,29.63
2022-08-26T13:24:57.014Z,29.66
2022-08-26T13:30:00.422Z,30.60
2022-08-26T13:35:05.951Z,31.33
2022-08-26T13:40:10.020Z,30.68
2022-08-26T13:45:13.098Z,30.45
2022-08-26T13:50:16.097Z,30.57
2022-08-26T13:55:18.980Z,31.51
2022-08-26T14:00:23.390Z,30.54
2022-08-26T14:05:27.793Z,31.43
2022-08-26T14:10:30.718Z,31.10
2022-08-26T14:15:36.013Z,32.66
2022-08-26T14:20:39.493Z,31.90
2022-08-26T14:25:42.734Z,30.28
2022-08-26T14:30:52.249Z,30.88
2022-08-26T14:36:15.842Z,31.55
2022-08-26T14:41:20.159Z,33.00
2022-08-26T14:46:22.958Z,31.79
2022-08-26T14:51:26.232Z,31.40
2022-08-26T14:56:31.333Z,31.07
2022-08-26T15:01:34.310Z,31.49
2022-08-26T15:06:38.181Z,30.34
2022-08-26T15:11:41.254Z,29.42
2022-08-26T15:16:44.345Z,31.16
2022-08-26T15:21:47.865Z,30.82
2022-08-26T15:26:53.385Z,31.42
2022-08-26T15:31:57.420Z,31.37
2022-08-26T15:37:00.329Z,32.46
2022-08-26T15:42:04.684Z,32.01
2022-08-26T15:47:08.071Z,33.54
2022-08-26T15:52:11.120Z,33.77
2022-08-26T15:57:16.451Z,34.99
2022-08-26T16:02:22.041Z,36.13
2022-08-26T16:07:25.049Z,36.48
2022-08-26T16:12:28.542Z,37.23
2022-08-26T16:17:31.438Z,37.48
2022-08-26T16:22:34.324Z,37.94
2022-08-26T16:27:37.294Z,39.58
2022-08-26T16:32:40.255Z,40.89
2022-08-26T16:37:43.195Z,42.00
2022-08-26T16:42:46.156Z,42.78
2022-08-26T16:47:50.058Z,43.72
2022-08-26T16:52:55.968Z,44.08
2022-08-26T16:57:59.871Z,44.75
2022-08-26T17:03:02.949Z,44.99
2022-08-26T17:08:06.330Z,45.38
2022-08-26T17:13:09.483Z,46.09
2022-08-26T17:18:12.593Z,47.65
2022-08-26T17:23:16.569Z,48.62
2022-08-26T17:28:21.591Z,49.59
2022-08-26T17:33:24.906Z,49.88
2022-08-26T17:38:29.251Z,49.67
2022-08-26T17:43:32.132Z,50.06
2022-08-26T17:48:37.655Z,50.80
2022-08-26T17:53:41.898Z,51.17
2022-08-26T17:58:51.351Z,51.79
2022-08-26T18:04:00.158Z,52.50
2022-08-26T18:09:03.971Z,53.14
2022-08-26T18:14:06.762Z,54.82
2022-08-26T18:19:09.623Z,55.39
2022-08-26T18:24:14.257Z,55.62
2022-08-26T18:29:19.473Z,56.49
2022-08-26T18:34:22.945Z,57.01
2022-08-26T18:39:27.894Z,58.20
2022-08-26T18:44:30.721Z,59.01
2022-08-26T18:49:44.342Z,59.47
2022-08-26T18:54:47.177Z,60.38
2022-08-26T18:59:53.714Z,61.11
2022-08-26T19:04:57.068Z,61.89
2022-08-26T19:09:59.881Z,61.99
2022-08-26T19:15:05.891Z,62.37
2022-08-26T19:20:09.939Z,62.26
2022-08-26T19:25:13.403Z,62.44
2022-08-26T19:30:16.398Z,62.94
2022-08-26T19:35:19.371Z,63.42
2022-08-26T19:40:22.494Z,63.75
2022-08-26T19:45:25.601Z,63.06
2022-08-26T19:50:33.748Z,63.14
2022-08-26T19:55:36.690Z,62.81
2022-08-26T20:00:42.190Z,61.87
2022-08-26T20:05:44.989Z,61.06
2022-08-26T20:10:50.494Z,61.32
2022-08-26T20:15:53.444Z,61.48
2022-08-26T20:21:15.835Z,62.35
2022-08-26T20:26:19.144Z,62.56
2022-08-26T20:31:22.599Z,61.88
2022-08-26T20:36:27.955Z,62.84
2022-08-26T20:41:31.421Z,63.26
2022-08-26T20:46:37.270Z,63.66
2022-08-26T20:51:43.155Z,63.91
2022-08-26T20:56:46.746Z,64.30
2022-08-26T21:01:52.073Z,64.68
2022-08-26T21:06:55.758Z,65.28
2022-08-26T21:11:59.483Z,65.95
2022-08-26T21:17:02.635Z,66.24
2022-08-26T21:22:06.183Z,66.51
2022-08-26T21:27:09.160Z,67.34
2022-08-26T21:32:12.424Z,67.58
2022-08-26T21:37:18.651Z,67.44
2022-08-26T21:42:22.030Z,67.29
2022-08-26T21:47:25.020Z,67.42
2022-08-26T21:52:28.361Z,67.35
2022-08-26T21:57:33.059Z,67.78
2022-08-26T22:02:37.006Z,68.14
2022-08-26T22:07:40.013Z,68.21
2022-08-26T22:12:42.923Z,68.64
2022-08-26T22:17:45.813Z,69.37
2022-08-26T22:22:48.619Z,69.53
2022-08-26T22:27:51.983Z,69.91
2022-08-26T22:32:54.934Z,69.81
2022-08-26T22:37:59.055Z,69.76
2022-08-26T22:43:04.427Z,70.24
2022-08-26T22:48:07.463Z,70.86
2022-08-26T22:53:10.502Z,70.77
2022-08-26T22:58:17.089Z,70.78
2022-08-26T23:03:21.175Z,71.13
2022-08-26T23:08:26.374Z,71.19
2022-08-26T23:13:29.284Z,72.09
2022-08-26T23:18:32.728Z,72.23
2022-08-26T23:23:35.753Z,72.98
2022-08-26T23:28:40.325Z,73.16
2022-08-26T23:34:01.551Z,72.83
2022-08-26T23:39:06.097Z,72.99
2022-08-26T23:44:09.002Z,73.84
2022-08-26T23:49:11.869Z,74.28
2022-08-26T23:54:14.942Z,74.86
2022-08-26T23:59:17.777Z,74.88
